createdAt,value
2022-08-03T00:00:55.201Z,3.55
2022-08-03T00:03:41.096Z,3.47
2022-08-03T00:06:26.724Z,4.18
2022-08-03T00:09:12.638Z,3.72
2022-08-03T00:11:58.117Z,2.47
2022-08-03T00:14:45.254Z,3.85
2022-08-03T00:17:31.216Z,3.20
2022-08-03T00:20:37.156Z,3.45
2022-08-03T00:23:31.744Z,3.90
2022-08-03T00:26:33.292Z,3.63
2022-08-03T00:29:18.936Z,3.10
2022-08-03T00:32:04.932Z,3.13
2022-08-03T00:34:58.590Z,3.00
2022-08-03T00:37:44.628Z,3.35
2022-08-03T00:40:30.363Z,3.03
2022-08-03T00:43:15.767Z,2.70
2022-08-03T00:46:01.347Z,3.25
2022-08-03T00:48:46.931Z,2.53
2022-08-03T00:51:33.939Z,2.50
2022-08-03T00:54:20.614Z,2.47
2022-08-03T00:57:07.070Z,2.33
2022-08-03T00:59:54.862Z,2.30
2022-08-03T01:02:41.255Z,2.42
2022-08-03T01:05:26.648Z,2.40
2022-08-03T01:08:43.285Z,2.97
2022-08-03T01:12:01.158Z,2.00
2022-08-03T01:15:08.739Z,2.33
2022-08-03T01:18:00.446Z,2.50
2022-08-03T01:20:51.767Z,2.22
2022-08-03T01:24:15.902Z,2.42
2022-08-03T01:27:10.055Z,2.22
2022-08-03T01:30:11.045Z,2.40
2022-08-03T01:33:02.734Z,2.30
2022-08-03T01:36:02.183Z,2.30
2022-08-03T01:38:54.140Z,2.78
2022-08-03T01:41:48.172Z,2.10
2022-08-03T01:44:41.135Z,2.55
2022-08-03T01:47:29.499Z,2.38
2022-08-03T01:50:16.259Z,2.65
2022-08-03T01:53:04.316Z,2.60
2022-08-03T01:55:54.571Z,2.33
2022-08-03T01:58:45.238Z,2.47
2022-08-03T02:02:32.351Z,2.97
2022-08-03T02:04:41.710Z,2.60
2022-08-03T02:07:43.696Z,3.00
2022-08-03T02:10:35.172Z,3.05
2022-08-03T02:13:23.341Z,3.28
2022-08-03T02:16:09.365Z,3.42
2022-08-03T02:18:56.412Z,3.30
2022-08-03T02:21:57.233Z,2.90
2022-08-03T02:24:51.159Z,3.88
2022-08-03T02:27:43.700Z,3.17
2022-08-03T02:30:40.318Z,3.20
2022-08-03T02:33:31.714Z,3.83
2022-08-03T02:36:22.095Z,3.15
2022-08-03T02:39:11.540Z,3.70
2022-08-03T02:42:03.236Z,4.20
2022-08-03T02:44:51.571Z,3.78
2022-08-03T02:47:54.191Z,3.60
2022-08-03T02:50:42.012Z,3.80
2022-08-03T02:53:29.471Z,3.65
2022-08-03T02:56:16.410Z,3.50
2022-08-03T02:59:03.079Z,3.05
2022-08-03T03:01:49.546Z,3.55
2022-08-03T03:04:36.006Z,3.80
2022-08-03T03:07:22.228Z,3.80
2022-08-03T03:10:08.783Z,3.55
2022-08-03T03:12:57.420Z,4.05
2022-08-03T03:15:45.212Z,3.33
2022-08-03T03:18:33.226Z,3.63
2022-08-03T03:21:20.107Z,4.15
2022-08-03T03:24:08.087Z,4.05
2022-08-03T03:26:54.019Z,4.13
2022-08-03T03:29:42.635Z,4.15
2022-08-03T03:32:29.499Z,4.13
2022-08-03T03:35:16.696Z,3.88
2022-08-03T03:38:02.040Z,4.60
2022-08-03T03:40:49.262Z,4.07
2022-08-03T03:43:37.107Z,3.75
2022-08-03T03:46:32.039Z,5.10
2022-08-03T03:49:17.685Z,4.03
2022-08-03T03:52:03.796Z,4.75
2022-08-03T03:54:49.120Z,4.55
2022-08-03T03:57:37.839Z,4.55
2022-08-03T04:00:24.085Z,4.35
2022-08-03T04:03:12.591Z,5.10
2022-08-03T04:06:16.519Z,4.53
2022-08-03T04:09:20.307Z,4.43
2022-08-03T04:12:06.625Z,4.47
2022-08-03T04:14:56.916Z,4.47
2022-08-03T04:17:43.935Z,4.03
2022-08-03T04:20:32.642Z,4.28
2022-08-03T04:23:22.328Z,4.18
2022-08-03T04:26:11.945Z,4.38
2022-08-03T04:28:58.879Z,4.50
2022-08-03T04:31:46.798Z,4.20
2022-08-03T04:34:32.685Z,4.78
2022-08-03T04:37:39.734Z,4.10
2022-08-03T04:40:34.675Z,4.05
2022-08-03T04:43:25.509Z,4.05
2022-08-03T04:46:12.347Z,3.50
2022-08-03T04:48:59.639Z,4.28
2022-08-03T04:51:45.364Z,4.10
2022-08-03T04:54:31.437Z,3.75
2022-08-03T04:57:22.174Z,3.85
2022-08-03T05:00:09.079Z,3.63
2022-08-03T05:02:55.436Z,3.63
2022-08-03T05:05:49.828Z,4.00
2022-08-03T05:08:36.266Z,3.60
2022-08-03T05:11:32.265Z,4.10
2022-08-03T05:14:17.878Z,3.70
2022-08-03T05:17:13.719Z,3.65
2022-08-03T05:19:59.051Z,3.58
2022-08-03T05:22:44.692Z,4.10
2022-08-03T05:25:30.671Z,3.58
2022-08-03T05:28:16.104Z,2.90
2022-08-03T05:31:02.185Z,2.90
2022-08-03T05:33:51.480Z,3.40
2022-08-03T05:36:36.623Z,2.25
2022-08-03T05:39:22.099Z,3.22
2022-08-03T05:42:07.999Z,2.42
2022-08-03T05:44:53.519Z,2.40
2022-08-03T05:47:39.020Z,2.40
2022-08-03T05:50:24.691Z,2.80
2022-08-03T05:53:10.091Z,3.03
2022-08-03T05:55:59.314Z,2.45
2022-08-03T05:58:49.174Z,2.90
2022-08-03T06:01:37.639Z,2.83
2022-08-03T06:04:24.605Z,2.60
2022-08-03T06:07:10.115Z,3.03
2022-08-03T06:10:35.244Z,2.50
2022-08-03T06:13:01.483Z,2.42
2022-08-03T06:15:46.921Z,2.63
2022-08-03T06:18:32.460Z,3.00
2022-08-03T06:21:17.752Z,2.65
2022-08-03T06:24:03.377Z,2.72
2022-08-03T06:26:51.508Z,2.60
2022-08-03T06:29:38.985Z,3.08
2022-08-03T06:32:25.055Z,2.85
2022-08-03T06:35:10.709Z,2.58
2022-08-03T06:37:57.256Z,2.92
2022-08-03T06:40:42.947Z,4.18
2022-08-03T06:43:28.572Z,3.30
2022-08-03T06:46:22.380Z,3.60
2022-08-03T06:49:08.674Z,2.90
2022-08-03T06:52:03.717Z,3.30
2022-08-03T06:54:51.934Z,3.63
2022-08-03T06:57:37.678Z,3.40
2022-08-03T07:00:23.452Z,3.63
2022-08-03T07:03:14.019Z,3.35
2022-08-03T07:05:59.675Z,3.72
2022-08-03T07:08:44.965Z,3.83
2022-08-03T07:11:30.868Z,3.42
2022-08-03T07:14:16.287Z,3.67
2022-08-03T07:17:01.752Z,3.80
2022-08-03T07:19:50.495Z,3.88
2022-08-03T07:22:36.298Z,3.60
2022-08-03T07:25:25.367Z,3.42
2022-08-03T07:28:10.729Z,3.10
2022-08-03T07:30:56.467Z,3.20
2022-08-03T07:33:41.957Z,3.58
2022-08-03T07:36:27.541Z,3.25
2022-08-03T07:39:15.783Z,3.90
2022-08-03T07:42:03.826Z,3.30
2022-08-03T07:44:49.357Z,3.85
2022-08-03T07:47:36.038Z,3.72
2022-08-03T07:50:22.533Z,3.30
2022-08-03T07:53:10.953Z,3.92
2022-08-03T07:55:57.170Z,3.90
2022-08-03T07:58:42.682Z,3.58
2022-08-03T08:01:28.066Z,3.22
2022-08-03T08:04:13.628Z,3.50
2022-08-03T08:06:59.127Z,3.65
2022-08-03T08:09:44.710Z,3.20
2022-08-03T08:12:30.262Z,3.67
2022-08-03T08:15:16.221Z,3.60
2022-08-03T08:18:02.532Z,3.60
2022-08-03T08:20:50.484Z,2.90
2022-08-03T08:23:41.735Z,3.42
2022-08-03T08:26:29.065Z,3.67
2022-08-03T08:29:14.614Z,3.45
2022-08-03T08:32:01.135Z,3.45
2022-08-03T08:34:46.835Z,3.97
2022-08-03T08:37:33.135Z,3.97
2022-08-03T08:40:21.331Z,3.42
2022-08-03T08:43:07.782Z,4.00
2022-08-03T08:45:56.046Z,3.20
2022-08-03T08:48:43.898Z,4.10
2022-08-03T08:51:59.259Z,3.70
2022-08-03T08:54:41.682Z,3.70
2022-08-03T08:57:43.305Z,3.83
2022-08-03T09:00:30.905Z,3.90
2022-08-03T09:03:22.642Z,3.97
2022-08-03T09:06:15.736Z,3.75
2022-08-03T09:09:01.536Z,3.95
2022-08-03T09:11:51.573Z,3.67
2022-08-03T09:15:14.807Z,3.30
2022-08-03T09:20:42.773Z,4.20
2022-08-03T09:24:01.601Z,4.00
2022-08-03T09:26:53.648Z,3.38
2022-08-03T09:29:39.543Z,3.78
2022-08-03T09:32:25.407Z,3.53
2022-08-03T09:35:11.977Z,4.00
2022-08-03T09:38:33.187Z,3.78
2022-08-03T09:41:21.979Z,4.18
2022-08-03T09:44:08.443Z,3.70
2022-08-03T09:47:11.161Z,3.15
2022-08-03T09:50:01.926Z,3.03
2022-08-03T09:52:52.623Z,3.38
2022-08-03T09:56:32.851Z,3.15
2022-08-03T09:58:48.207Z,3.50
2022-08-03T10:01:37.578Z,3.25
2022-08-03T10:04:24.855Z,3.28
2022-08-03T10:07:11.780Z,3.25
2022-08-03T10:10:30.521Z,3.33
2022-08-03T10:13:05.512Z,3.08
2022-08-03T10:16:22.824Z,3.67
2022-08-03T10:18:58.199Z,2.95
2022-08-03T10:21:53.691Z,3.67
2022-08-03T10:24:53.156Z,3.97
2022-08-03T10:27:41.472Z,2.97
2022-08-03T10:30:28.270Z,2.80
2022-08-03T10:33:49.671Z,3.70
2022-08-03T10:36:30.509Z,3.35
2022-08-03T10:39:21.667Z,2.70
2022-08-03T10:42:14.637Z,3.03
2022-08-03T10:45:15.285Z,3.10
2022-08-03T10:48:01.335Z,2.45
2022-08-03T10:50:49.684Z,3.40
2022-08-03T10:53:46.217Z,3.00
2022-08-03T10:57:04.862Z,3.35
2022-08-03T11:00:02.015Z,3.13
2022-08-03T11:03:11.286Z,3.08
2022-08-03T11:06:21.947Z,3.75
2022-08-03T11:09:10.328Z,3.60
2022-08-03T11:11:56.009Z,3.65
2022-08-03T11:14:48.689Z,3.67
2022-08-03T11:17:45.825Z,3.40
2022-08-03T11:20:55.271Z,4.07
2022-08-03T11:24:05.421Z,3.55
2022-08-03T11:27:15.708Z,3.65
2022-08-03T11:30:07.725Z,3.53
2022-08-03T11:32:57.170Z,3.10
2022-08-03T11:36:02.312Z,3.85
2022-08-03T11:39:12.927Z,3.75
2022-08-03T11:42:22.398Z,3.60
2022-08-03T11:45:09.874Z,3.55
2022-08-03T11:47:55.992Z,3.80
2022-08-03T11:50:46.946Z,3.30
2022-08-03T11:53:32.884Z,4.15
2022-08-03T11:56:28.653Z,3.22
2022-08-03T11:59:20.021Z,4.22
2022-08-03T12:02:12.555Z,3.85
2022-08-03T12:05:01.290Z,3.30
2022-08-03T12:08:03.212Z,3.90
2022-08-03T12:10:51.675Z,3.95
2022-08-03T12:14:45.351Z,3.33
2022-08-03T12:16:50.766Z,4.00
2022-08-03T12:19:45.536Z,4.10
2022-08-03T12:22:35.802Z,4.18
2022-08-03T12:25:38.796Z,3.90
2022-08-03T12:28:28.391Z,4.13
2022-08-03T12:31:23.866Z,3.90
2022-08-03T12:34:11.516Z,3.28
2022-08-03T12:36:57.805Z,3.80
2022-08-03T12:40:02.566Z,2.95
2022-08-03T12:42:49.768Z,2.95
2022-08-03T12:45:36.791Z,4.05
2022-08-03T12:48:22.183Z,3.75
2022-08-03T12:51:12.250Z,3.35
2022-08-03T12:53:59.073Z,2.92
2022-08-03T12:57:06.472Z,3.42
2022-08-03T12:59:55.920Z,2.58
2022-08-03T13:02:42.031Z,3.40
2022-08-03T13:05:46.112Z,2.40
2022-08-03T13:08:31.954Z,2.58
2022-08-03T13:11:21.728Z,2.30
2022-08-03T13:14:09.542Z,2.45
2022-08-03T13:17:02.040Z,2.75
2022-08-03T13:19:48.907Z,2.83
2022-08-03T13:22:34.692Z,2.72
2022-08-03T13:25:20.500Z,2.42
2022-08-03T13:28:09.798Z,2.05
2022-08-03T13:31:00.501Z,2.72
2022-08-03T13:33:49.007Z,2.35
2022-08-03T13:36:59.151Z,2.80
2022-08-03T13:39:58.279Z,2.65
2022-08-03T13:42:45.751Z,2.83
2022-08-03T13:45:31.200Z,2.53
2022-08-03T13:48:16.650Z,3.10
2022-08-03T13:51:23.046Z,2.70
2022-08-03T13:54:08.913Z,2.70
2022-08-03T13:56:58.964Z,2.95
2022-08-03T13:59:49.763Z,2.63
2022-08-03T14:02:35.214Z,2.28
2022-08-03T14:05:21.105Z,2.55
2022-08-03T14:08:07.364Z,2.10
2022-08-03T14:10:52.777Z,3.22
2022-08-03T14:13:38.526Z,2.78
2022-08-03T14:16:24.027Z,2.47
2022-08-03T14:19:09.261Z,3.40
2022-08-03T14:22:00.276Z,2.83
2022-08-03T14:24:52.539Z,2.78
2022-08-03T14:27:39.721Z,3.10
2022-08-03T14:30:24.966Z,2.28
2022-08-03T14:33:10.650Z,2.88
2022-08-03T14:35:58.835Z,2.45
2022-08-03T14:38:44.522Z,2.30
2022-08-03T14:41:30.190Z,2.95
2022-08-03T14:44:16.412Z,3.28
2022-08-03T14:47:01.892Z,3.10
2022-08-03T14:50:36.511Z,2.95
2022-08-03T14:52:54.124Z,3.15
2022-08-03T14:55:50.738Z,3.10
2022-08-03T14:58:37.161Z,2.83
2022-08-03T15:02:04.628Z,2.97
2022-08-03T15:04:30.753Z,2.75
2022-08-03T15:07:18.706Z,2.90
2022-08-03T15:10:05.296Z,2.78
2022-08-03T15:12:51.261Z,2.83
2022-08-03T15:15:36.968Z,2.72
2022-08-03T15:18:23.444Z,2.58
2022-08-03T15:21:09.232Z,2.97
2022-08-03T15:24:07.684Z,2.33
2022-08-03T15:26:53.390Z,3.00
2022-08-03T15:30:08.785Z,2.42
2022-08-03T15:32:47.636Z,3.10
2022-08-03T15:35:33.951Z,3.45
2022-08-03T15:38:20.033Z,3.13
2022-08-03T15:41:05.724Z,2.72
2022-08-03T15:43:59.186Z,3.08
2022-08-03T15:46:44.503Z,3.10
2022-08-03T15:49:30.048Z,3.92
2022-08-03T15:52:15.892Z,3.17
2022-08-03T15:55:01.616Z,3.70
2022-08-03T15:59:03.204Z,3.20
2022-08-03T16:00:52.808Z,3.22
2022-08-03T16:03:40.393Z,3.35
2022-08-03T16:06:35.313Z,3.30
2022-08-03T16:09:23.629Z,3.38
2022-08-03T16:12:27.310Z,2.95
2022-08-03T16:15:13.632Z,2.80
2022-08-03T16:17:59.433Z,2.75
2022-08-03T16:20:45.589Z,2.83
2022-08-03T16:23:36.024Z,2.60
2022-08-03T16:26:23.460Z,2.83
2022-08-03T16:29:22.445Z,2.65
2022-08-03T16:32:10.495Z,2.92
2022-08-03T16:35:02.380Z,2.38
2022-08-03T16:37:56.573Z,2.80
2022-08-03T16:40:42.658Z,2.47
2022-08-03T16:43:28.555Z,2.50
2022-08-03T16:46:13.998Z,2.28
2022-08-03T16:48:59.433Z,2.28
2022-08-03T16:51:50.373Z,2.17
2022-08-03T16:54:37.374Z,2.70
2022-08-03T16:57:56.294Z,2.20
2022-08-03T17:00:34.251Z,2.30
2022-08-03T17:03:27.558Z,2.40
2022-08-03T17:06:14.124Z,1.92
2022-08-03T17:09:00.882Z,2.10
2022-08-03T17:11:48.270Z,1.98
2022-08-03T17:14:34.140Z,1.80
2022-08-03T17:17:37.606Z,2.28
2022-08-03T17:20:41.045Z,2.05
2022-08-03T17:23:44.735Z,2.10
2022-08-03T17:26:36.740Z,1.88
2022-08-03T17:29:25.110Z,2.25
2022-08-03T17:32:17.893Z,3.05
2022-08-03T17:35:05.934Z,2.20
2022-08-03T17:38:03.103Z,2.35
2022-08-03T17:40:52.029Z,2.92
2022-08-03T17:44:14.010Z,2.30
2022-08-03T17:46:46.921Z,2.17
2022-08-03T17:49:40.152Z,2.13
2022-08-03T17:52:29.024Z,1.77
2022-08-03T17:55:55.335Z,2.10
2022-08-03T17:58:59.400Z,1.63
2022-08-03T18:02:22.322Z,1.80
2022-08-03T18:05:17.688Z,1.80
2022-08-03T18:08:08.076Z,1.65
2022-08-03T18:11:14.745Z,1.83
2022-08-03T18:14:16.649Z,2.10
2022-08-03T18:17:10.565Z,2.17
2022-08-03T18:20:03.343Z,1.98
2022-08-03T18:22:50.973Z,2.17
2022-08-03T18:25:45.765Z,2.20
2022-08-03T18:28:36.513Z,1.90
2022-08-03T18:31:59.456Z,2.10
2022-08-03T18:34:33.123Z,1.92
2022-08-03T18:37:25.433Z,2.20
2022-08-03T18:40:12.174Z,2.35
2022-08-03T18:43:08.127Z,2.05
2022-08-03T18:45:58.497Z,2.40
2022-08-03T18:48:55.098Z,1.70
2022-08-03T18:51:47.032Z,2.85
2022-08-03T18:54:57.246Z,1.92
2022-08-03T18:58:18.219Z,2.92
2022-08-03T19:01:15.281Z,2.50
2022-08-03T19:07:36.062Z,2.22
2022-08-03T19:10:26.289Z,2.67
2022-08-03T19:13:31.063Z,2.08
2022-08-03T19:16:42.628Z,2.35
2022-08-03T19:19:44.055Z,2.72
2022-08-03T19:22:32.473Z,3.10
2022-08-03T19:25:18.959Z,2.55
2022-08-03T19:28:07.590Z,2.25
2022-08-03T19:30:56.446Z,2.28
2022-08-03T19:33:57.520Z,2.53
2022-08-03T19:36:47.829Z,2.58
2022-08-03T19:39:36.145Z,2.67
2022-08-03T19:42:33.782Z,2.70
2022-08-03T19:48:40.484Z,3.38
2022-08-03T19:52:02.572Z,3.10
2022-08-03T19:54:54.178Z,3.13
2022-08-03T19:57:43.627Z,2.88
2022-08-03T20:00:37.059Z,2.70
2022-08-03T20:03:27.992Z,4.00
2022-08-03T20:06:28.904Z,3.20
2022-08-03T20:09:15.595Z,3.08
2022-08-03T20:12:01.522Z,2.60
2022-08-03T20:14:48.367Z,4.40
2022-08-03T20:17:54.498Z,7.00
2022-08-03T20:20:41.339Z,3.03
2022-08-03T20:23:37.369Z,2.80
2022-08-03T20:26:28.575Z,2.65
2022-08-03T20:29:19.614Z,3.10
2022-08-03T20:32:28.205Z,2.80
2022-08-03T20:35:16.026Z,2.88
2022-08-03T20:38:02.949Z,3.53
2022-08-03T20:40:50.894Z,2.80
2022-08-03T20:43:36.409Z,2.72
2022-08-03T20:46:29.504Z,2.95
2022-08-03T20:49:23.092Z,3.42
2022-08-03T20:52:18.606Z,2.70
2022-08-03T20:55:13.054Z,3.30
2022-08-03T20:58:01.432Z,4.43
2022-08-03T21:00:49.044Z,3.50
2022-08-03T21:03:41.255Z,3.70
2022-08-03T21:06:56.597Z,3.63
2022-08-03T21:09:53.683Z,4.63
2022-08-03T21:12:54.416Z,4.90
2022-08-03T21:16:06.099Z,4.00
2022-08-03T21:18:51.985Z,3.50
2022-08-03T21:21:38.871Z,4.40
2022-08-03T21:24:26.942Z,4.80
2022-08-03T21:27:37.737Z,5.13
2022-08-03T21:30:25.562Z,3.63
2022-08-03T21:33:11.521Z,3.40
2022-08-03T21:35:59.160Z,3.40
2022-08-03T21:38:47.567Z,2.92
2022-08-03T21:41:42.457Z,2.67
2022-08-03T21:44:29.347Z,3.33
2022-08-03T21:47:15.410Z,3.33
2022-08-03T21:50:07.503Z,3.40
2022-08-03T21:52:56.675Z,3.10
2022-08-03T21:55:48.189Z,3.38
2022-08-03T21:58:43.003Z,3.42
2022-08-03T22:01:29.512Z,4.15
2022-08-03T22:04:50.910Z,4.07
2022-08-03T22:07:29.468Z,4.00
2022-08-03T22:10:18.803Z,4.60
2022-08-03T22:13:04.566Z,4.85
2022-08-03T22:15:50.325Z,4.32
2022-08-03T22:18:37.811Z,3.85
2022-08-03T22:21:35.765Z,3.60
2022-08-03T22:24:24.736Z,3.20
2022-08-03T22:27:30.465Z,3.95
2022-08-03T22:30:20.039Z,3.55
2022-08-03T22:33:11.048Z,3.85
2022-08-03T22:35:59.812Z,3.78
2022-08-03T22:38:47.900Z,3.55
2022-08-03T22:41:33.737Z,3.40
2022-08-03T22:44:18.999Z,3.67
2022-08-03T22:47:05.580Z,3.42
2022-08-03T22:50:32.690Z,3.50
2022-08-03T22:53:00.024Z,2.90
2022-08-03T22:55:47.572Z,3.78
2022-08-03T22:58:33.081Z,3.20
2022-08-03T23:01:23.083Z,3.00
2022-08-03T23:04:08.991Z,3.50
2022-08-03T23:06:56.907Z,3.60
2022-08-03T23:09:45.687Z,4.05
2022-08-03T23:12:37.742Z,3.63
2022-08-03T23:15:26.356Z,3.10
2022-08-03T23:18:11.919Z,3.25
2022-08-03T23:21:02.724Z,3.78
2022-08-03T23:23:56.957Z,3.28
2022-08-03T23:26:44.597Z,3.80
2022-08-03T23:29:31.506Z,3.72
2022-08-03T23:32:20.662Z,3.88
2022-08-03T23:36:29.004Z,4.00
2022-08-03T23:38:35.853Z,4.10
2022-08-03T23:41:22.149Z,4.45
2022-08-03T23:44:08.005Z,4.80
2022-08-03T23:46:53.501Z,4.85
2022-08-03T23:49:39.297Z,5.82
2022-08-03T23:52:34.820Z,5.75
2022-08-03T23:55:23.167Z,6.05
2022-08-03T23:58:55.128Z,5.43
